createdAt,value
2018-03-21T00:00:27.111Z,99798.48
2018-03-21T00:02:54.726Z,99794.40
2018-03-21T00:05:22.321Z,99788.23
2018-03-21T00:07:49.915Z,99795.73
2018-03-21T00:10:17.559Z,99787.61
2018-03-21T00:12:45.150Z,99784.77
2018-03-21T00:15:12.745Z,99788.76
2018-03-21T00:17:40.427Z,99788.06
2018-03-21T00:20:08.003Z,99790.70
2018-03-21T00:22:35.590Z,99797.67
2018-03-21T00:25:03.212Z,99808.60
2018-03-21T00:27:30.805Z,99818.74
2018-03-21T00:29:58.392Z,99815.45
2018-03-21T00:32:26.010Z,99818.70
2018-03-21T00:34:53.605Z,99815.00
2018-03-21T00:37:21.193Z,99812.16
2018-03-21T00:39:48.835Z,99804.11
2018-03-21T00:42:16.429Z,99807.50
2018-03-21T00:44:44.008Z,99803.95
2018-03-21T00:47:11.633Z,99799.17
2018-03-21T00:49:39.229Z,99806.50
2018-03-21T00:52:06.812Z,99797.59
2018-03-21T00:54:34.460Z,99797.92
2018-03-21T00:57:02.048Z,99795.83
2018-03-21T00:59:29.647Z,99800.65
2018-03-21T01:01:57.288Z,99805.52
2018-03-21T01:04:24.898Z,99801.39
2018-03-21T01:06:52.480Z,99809.81
2018-03-21T01:09:20.104Z,99813.19
2018-03-21T01:11:47.697Z,99815.12
2018-03-21T01:14:15.288Z,99807.25
2018-03-21T01:16:42.915Z,99802.09
2018-03-21T01:19:10.504Z,99790.70
2018-03-21T01:21:38.096Z,99795.78
2018-03-21T01:24:05.758Z,99805.22
2018-03-21T01:26:33.341Z,99802.38
2018-03-21T01:29:00.936Z,99796.85
2018-03-21T01:31:28.581Z,99785.64
2018-03-21T01:33:56.185Z,99793.59
2018-03-21T01:36:23.819Z,99780.77
2018-03-21T01:38:51.484Z,99791.66
2018-03-21T01:41:19.083Z,99786.05
2018-03-21T01:43:46.668Z,99781.02
2018-03-21T01:46:14.344Z,99782.42
2018-03-21T01:48:41.954Z,99779.78
2018-03-21T01:51:09.561Z,99789.31
2018-03-21T01:53:37.192Z,99782.05
2018-03-21T01:56:04.786Z,99773.05
2018-03-21T01:58:32.386Z,99770.91
2018-03-21T02:01:00.055Z,99764.60
2018-03-21T02:03:27.662Z,99774.59
2018-03-21T02:05:55.256Z,99772.80
2018-03-21T02:08:22.886Z,99762.59
2018-03-21T02:10:50.492Z,99750.63
2018-03-21T02:13:18.092Z,99752.32
2018-03-21T02:15:45.722Z,99746.95
2018-03-21T02:18:13.313Z,99751.48
2018-03-21T02:20:40.905Z,99749.02
2018-03-21T02:23:08.531Z,99743.83
2018-03-21T02:25:36.109Z,99741.52
2018-03-21T02:28:03.693Z,99742.92
2018-03-21T02:30:31.318Z,99736.23
2018-03-21T02:32:58.902Z,99729.20
2018-03-21T02:35:26.508Z,99739.25
2018-03-21T02:37:54.152Z,99740.49
2018-03-21T02:40:21.740Z,99742.25
2018-03-21T02:42:49.330Z,99738.13
2018-03-21T02:45:17.076Z,99738.51
2018-03-21T02:47:44.671Z,99728.98
2018-03-21T02:50:12.283Z,99733.48
2018-03-21T02:52:39.968Z,99745.84
2018-03-21T02:55:07.553Z,99750.79
2018-03-21T02:57:35.193Z,99749.77
2018-03-21T03:00:02.854Z,99750.33
2018-03-21T03:02:30.458Z,99747.58
2018-03-21T03:04:58.062Z,99751.36
2018-03-21T03:07:25.697Z,99768.30
2018-03-21T03:09:53.336Z,99774.89
2018-03-21T03:12:20.929Z,99773.00
2018-03-21T03:14:48.544Z,99782.70
2018-03-21T03:17:16.137Z,99792.89
2018-03-21T03:19:43.724Z,99789.63
2018-03-21T03:22:11.373Z,99775.22
2018-03-21T03:24:38.974Z,99768.51
2018-03-21T03:27:06.571Z,99764.92
2018-03-21T03:29:34.208Z,99755.94
2018-03-21T03:32:01.811Z,99757.84
2018-03-21T03:34:29.415Z,99767.03
2018-03-21T03:36:57.055Z,99769.34
2018-03-21T03:39:24.647Z,99766.01
2018-03-21T03:41:52.240Z,99757.59
2018-03-21T03:44:19.866Z,99759.53
2018-03-21T03:46:47.456Z,99750.67
2018-03-21T03:49:15.038Z,99749.77
2018-03-21T03:51:42.668Z,99743.28
2018-03-21T03:54:10.255Z,99745.92
2018-03-21T03:56:37.857Z,99742.08
2018-03-21T03:59:05.521Z,99733.75
2018-03-21T04:01:33.122Z,99733.86
2018-03-21T04:04:00.729Z,99740.63
2018-03-21T04:06:28.350Z,99748.25
2018-03-21T04:08:55.943Z,99754.14
2018-03-21T04:11:23.545Z,99761.62
2018-03-21T04:13:51.189Z,99764.80
2018-03-21T04:16:18.780Z,99753.27
2018-03-21T04:18:46.368Z,99747.24
2018-03-21T04:21:14.047Z,99743.53
2018-03-21T04:23:41.636Z,99755.48
2018-03-21T04:26:09.216Z,99753.75
2018-03-21T04:28:36.870Z,99762.58
2018-03-21T04:31:04.442Z,99782.67
2018-03-21T04:33:32.042Z,99784.81
2018-03-21T04:35:59.680Z,99765.59
2018-03-21T04:38:27.303Z,99763.48
2018-03-21T04:40:54.911Z,99753.97
2018-03-21T04:43:22.544Z,99753.14
2018-03-21T04:45:50.165Z,99783.91
2018-03-21T04:48:17.795Z,99762.17
2018-03-21T04:50:45.476Z,99773.84
2018-03-21T04:53:13.063Z,99773.47
2018-03-21T04:55:40.655Z,99750.09
2018-03-21T04:58:08.401Z,99767.05
2018-03-21T05:00:35.993Z,99776.81
2018-03-21T05:03:03.572Z,99768.26
2018-03-21T05:05:31.204Z,99767.53
2018-03-21T05:07:58.793Z,99762.05
2018-03-21T05:10:26.388Z,99755.55
2018-03-21T05:12:54.013Z,99733.52
2018-03-21T05:15:21.629Z,99736.44
2018-03-21T05:17:49.203Z,99767.64
2018-03-21T05:20:16.867Z,99753.50
2018-03-21T05:22:44.453Z,99709.89
2018-03-21T05:25:12.049Z,99689.98
2018-03-21T05:27:39.676Z,99717.98
2018-03-21T05:30:07.283Z,99752.47
2018-03-21T05:32:34.871Z,99748.30
2018-03-21T05:35:02.529Z,99745.23
2018-03-21T05:37:30.126Z,99768.97
2018-03-21T05:39:57.731Z,99768.77
2018-03-21T05:42:25.385Z,99759.43
2018-03-21T05:44:52.979Z,99756.21
2018-03-21T05:47:20.722Z,99730.42
2018-03-21T05:49:49.335Z,99713.13
2018-03-21T05:52:17.139Z,99691.70
2018-03-21T05:54:44.731Z,99708.08
2018-03-21T05:57:12.363Z,99736.30
2018-03-21T05:59:39.950Z,99725.70
2018-03-21T06:02:07.535Z,99752.97
2018-03-21T06:04:35.156Z,99708.23
2018-03-21T06:07:02.745Z,99736.58
2018-03-21T06:09:30.332Z,99732.35
2018-03-21T06:11:57.951Z,99727.88
2018-03-21T06:14:25.534Z,99740.92
2018-03-21T06:16:53.111Z,99742.73
2018-03-21T06:19:20.728Z,99740.86
2018-03-21T06:21:48.339Z,99748.89
2018-03-21T06:24:15.942Z,99751.38
2018-03-21T06:26:43.591Z,99750.90
2018-03-21T06:29:11.170Z,99754.12
2018-03-21T06:31:38.765Z,99748.80
2018-03-21T06:34:06.389Z,99757.13
2018-03-21T06:36:34.080Z,99749.36
2018-03-21T06:39:01.711Z,99748.81
2018-03-21T06:41:29.349Z,99733.92
2018-03-21T06:43:56.942Z,99736.02
2018-03-21T06:46:24.540Z,99729.06
2018-03-21T06:48:52.264Z,99720.37
2018-03-21T06:51:19.935Z,99727.59
2018-03-21T06:53:47.522Z,99722.86
2018-03-21T06:56:15.111Z,99712.75
2018-03-21T06:58:42.785Z,99724.78
2018-03-21T07:01:10.383Z,99727.48
2018-03-21T07:03:37.977Z,99724.88
2018-03-21T07:06:05.593Z,99730.31
2018-03-21T07:08:33.205Z,99728.38
2018-03-21T07:11:00.795Z,99722.78
2018-03-21T07:16:42.166Z,99741.02
2018-03-21T07:19:09.798Z,99739.74
2018-03-21T07:21:37.391Z,99745.31
2018-03-21T07:24:04.997Z,99738.95
2018-03-21T07:26:32.633Z,99728.88
2018-03-21T07:29:00.243Z,99732.39
2018-03-21T07:31:27.906Z,99746.70
2018-03-21T07:33:55.531Z,99737.45
2018-03-21T07:36:23.130Z,99735.97
2018-03-21T07:38:50.705Z,99730.38
2018-03-21T07:41:18.334Z,99730.00
2018-03-21T07:43:45.954Z,99717.02
2018-03-21T07:46:13.548Z,99699.69
2018-03-21T07:48:41.247Z,99702.98
2018-03-21T07:51:08.870Z,99705.24
2018-03-21T07:53:36.491Z,99699.64
2018-03-21T07:56:04.117Z,99710.09
2018-03-21T07:58:31.709Z,99715.27
2018-03-21T08:00:59.344Z,99698.41
2018-03-21T08:03:26.970Z,99693.23
2018-03-21T08:05:54.552Z,99704.58
2018-03-21T08:08:22.164Z,99689.64
2018-03-21T08:10:49.818Z,99675.84
2018-03-21T08:13:17.405Z,99667.00
2018-03-21T08:15:45.003Z,99654.36
2018-03-21T08:18:12.681Z,99649.75
2018-03-21T08:20:40.320Z,99634.98
2018-03-21T08:23:08.034Z,99624.83
2018-03-21T08:25:35.653Z,99611.97
2018-03-21T08:28:03.286Z,99612.45
2018-03-21T08:30:30.876Z,99612.87
2018-03-21T08:32:58.506Z,99608.87
2018-03-21T08:35:26.099Z,99621.58
2018-03-21T08:37:53.707Z,99616.93
2018-03-21T08:40:21.342Z,99626.28
2018-03-21T08:42:49.192Z,99630.23
2018-03-21T08:45:16.790Z,99621.41
2018-03-21T08:47:44.420Z,99609.73
2018-03-21T08:50:12.018Z,99591.48
2018-03-21T08:52:39.697Z,99590.08
2018-03-21T08:55:07.458Z,99591.67
2018-03-21T08:57:34.955Z,99589.83
2018-03-21T09:00:02.567Z,99582.83
2018-03-21T09:02:30.211Z,99587.05
2018-03-21T09:04:57.803Z,99586.02
2018-03-21T09:07:25.424Z,99581.80
2018-03-21T09:09:53.069Z,99575.25
2018-03-21T09:12:20.671Z,99567.42
2018-03-21T09:14:48.263Z,99562.41
2018-03-21T09:17:15.896Z,99551.96
2018-03-21T09:19:43.499Z,99544.28
2018-03-21T09:22:11.101Z,99529.66
2018-03-21T09:24:38.763Z,99543.03
2018-03-21T09:27:06.368Z,99529.12
2018-03-21T09:29:33.968Z,99518.86
2018-03-21T09:32:01.677Z,99531.38
2018-03-21T09:34:29.254Z,99523.78
2018-03-21T09:36:56.859Z,99521.03
2018-03-21T09:39:24.500Z,99525.48
2018-03-21T09:41:52.104Z,99522.20
2018-03-21T09:44:20.718Z,99521.50
2018-03-21T09:46:48.350Z,99520.45
2018-03-21T09:49:15.947Z,99534.13
2018-03-21T09:51:43.557Z,99526.92
2018-03-21T09:54:11.205Z,99520.92
2018-03-21T09:56:38.808Z,99511.96
2018-03-21T09:59:06.406Z,99501.80
2018-03-21T10:01:34.039Z,99493.72
2018-03-21T10:04:01.643Z,99483.87
2018-03-21T10:06:29.257Z,99474.58
2018-03-21T10:08:56.891Z,99478.55
2018-03-21T10:11:24.488Z,99469.75
2018-03-21T10:13:52.100Z,99480.86
2018-03-21T10:16:19.747Z,99502.97
2018-03-21T10:18:47.346Z,99511.25
2018-03-21T10:21:14.991Z,99511.48
2018-03-21T10:23:42.652Z,99519.34
2018-03-21T10:26:10.249Z,99519.50
2018-03-21T10:28:37.841Z,99511.36
2018-03-21T10:31:05.499Z,99512.22
2018-03-21T10:33:33.144Z,99508.23
2018-03-21T10:36:00.734Z,99515.58
2018-03-21T10:38:28.405Z,99524.42
2018-03-21T10:40:56.001Z,99517.06
2018-03-21T10:43:23.626Z,99505.49
2018-03-21T10:45:51.270Z,99515.80
2018-03-21T10:48:18.870Z,99506.94
2018-03-21T10:50:46.469Z,99493.01
2018-03-21T10:53:14.100Z,99487.52
2018-03-21T10:55:41.688Z,99482.64
2018-03-21T10:58:09.287Z,99501.10
2018-03-21T11:00:36.957Z,99511.27
2018-03-21T11:03:04.600Z,99515.66
2018-03-21T11:05:32.188Z,99512.89
2018-03-21T11:07:59.819Z,99510.36
2018-03-21T11:10:27.418Z,99510.88
2018-03-21T11:12:55.000Z,99505.22
2018-03-21T11:15:22.622Z,99484.28
2018-03-21T11:17:50.217Z,99502.93
2018-03-21T11:20:17.806Z,99499.41
2018-03-21T11:22:45.426Z,99485.83
2018-03-21T11:25:13.075Z,99501.30
2018-03-21T11:27:40.649Z,99504.17
2018-03-21T11:30:08.299Z,99507.38
2018-03-21T11:32:35.903Z,99497.72
2018-03-21T11:35:03.502Z,99519.27
2018-03-21T11:37:31.146Z,99523.95
2018-03-21T11:39:58.738Z,99503.91
2018-03-21T11:42:26.332Z,99507.25
2018-03-21T11:44:53.977Z,99500.27
2018-03-21T11:47:21.621Z,99492.83
2018-03-21T11:49:49.252Z,99505.77
2018-03-21T11:52:16.884Z,99499.00
2018-03-21T11:54:46.471Z,99494.62
2018-03-21T11:57:14.067Z,99519.88
2018-03-21T11:59:41.679Z,99540.72
2018-03-21T12:02:09.267Z,99525.92
2018-03-21T12:04:36.860Z,99509.17
2018-03-21T12:07:04.475Z,99532.66
2018-03-21T12:09:32.070Z,99548.08
2018-03-21T12:11:59.687Z,99553.21
2018-03-21T12:14:27.311Z,99569.78
2018-03-21T12:16:54.900Z,99580.04
2018-03-21T12:19:22.629Z,99575.71
2018-03-21T12:21:50.263Z,99588.08
2018-03-21T12:24:17.849Z,99593.92
2018-03-21T12:26:45.446Z,99585.58
2018-03-21T12:29:13.078Z,99603.77
2018-03-21T12:31:40.675Z,99610.05
2018-03-21T12:34:08.275Z,99604.19
2018-03-21T12:36:36.018Z,99594.64
2018-03-21T12:39:03.730Z,99607.16
2018-03-21T12:41:31.321Z,99606.79
2018-03-21T12:43:58.948Z,99594.52
2018-03-21T12:46:26.543Z,99574.28
2018-03-21T12:48:54.124Z,99550.25
2018-03-21T12:51:21.778Z,99537.74
2018-03-21T12:53:49.370Z,99545.17
2018-03-21T12:56:17.039Z,99594.33
2018-03-21T12:58:44.608Z,99640.65
2018-03-21T13:01:12.206Z,99634.42
2018-03-21T13:03:40.140Z,99639.36
2018-03-21T13:06:07.765Z,99663.34
2018-03-21T13:08:35.362Z,99677.03
2018-03-21T13:11:03.026Z,99694.77
2018-03-21T13:13:30.625Z,99717.57
2018-03-21T13:15:58.223Z,99710.30
2018-03-21T13:18:25.812Z,99720.92
2018-03-21T13:20:53.426Z,99738.14
2018-03-21T13:23:21.011Z,99722.44
2018-03-21T13:25:48.607Z,99735.31
2018-03-21T13:28:16.224Z,99724.59
2018-03-21T13:30:43.831Z,99753.44
2018-03-21T13:33:11.415Z,99749.63
2018-03-21T13:35:39.045Z,99745.55
2018-03-21T13:38:06.627Z,99739.70
2018-03-21T13:40:34.219Z,99738.23
2018-03-21T13:43:01.846Z,99733.66
2018-03-21T13:45:29.423Z,99740.39
2018-03-21T13:47:57.055Z,99760.72
2018-03-21T13:50:24.748Z,99764.30
2018-03-21T13:52:52.328Z,99756.64
2018-03-21T13:55:19.923Z,99765.95
2018-03-21T13:57:47.599Z,99768.92
2018-03-21T14:00:15.188Z,99768.82
2018-03-21T14:02:42.786Z,99787.63
2018-03-21T14:05:10.402Z,99790.94
2018-03-21T14:07:37.990Z,99790.09
2018-03-21T14:10:05.579Z,99806.00
2018-03-21T14:12:33.193Z,99816.27
2018-03-21T14:15:00.926Z,99824.76
2018-03-21T14:17:28.503Z,99828.50
2018-03-21T14:19:56.113Z,99829.03
2018-03-21T14:22:23.680Z,99833.73
2018-03-21T14:24:51.272Z,99839.22
2018-03-21T14:27:18.894Z,99850.90
2018-03-21T14:29:46.478Z,99847.56
2018-03-21T14:32:14.063Z,99853.18
2018-03-21T14:34:41.695Z,99858.48
2018-03-21T14:37:09.298Z,99864.45
2018-03-21T14:39:36.983Z,99876.27
2018-03-21T14:42:04.621Z,99881.05
2018-03-21T14:44:32.214Z,99889.42
2018-03-21T14:46:59.798Z,99882.56
2018-03-21T14:49:27.449Z,99893.05
2018-03-21T14:51:55.047Z,99888.25
2018-03-21T14:54:22.632Z,99902.92
2018-03-21T14:56:50.262Z,99926.92
2018-03-21T14:59:17.859Z,99921.64
2018-03-21T15:01:45.486Z,99910.48
2018-03-21T15:04:13.107Z,99915.72
2018-03-21T15:06:40.724Z,99921.11
2018-03-21T15:09:08.361Z,99925.99
2018-03-21T15:11:35.980Z,99942.81
2018-03-21T15:14:03.566Z,99958.17
2018-03-21T15:16:31.146Z,99977.69
2018-03-21T15:18:58.791Z,99973.58
2018-03-21T15:21:26.407Z,99969.25
2018-03-21T15:23:54.002Z,99959.22
2018-03-21T15:26:21.631Z,99979.36
2018-03-21T15:28:49.270Z,99980.41
2018-03-21T15:31:16.870Z,99997.16
2018-03-21T15:33:44.499Z,100012.95
2018-03-21T15:36:12.131Z,100020.56
2018-03-21T15:38:39.747Z,100025.77
2018-03-21T15:41:07.368Z,100040.11
2018-03-21T15:43:35.147Z,100043.17
2018-03-21T15:46:02.734Z,100039.14
2018-03-21T15:48:30.371Z,100038.49
2018-03-21T15:50:57.962Z,100054.56
2018-03-21T15:53:25.547Z,100059.28
2018-03-21T15:55:53.199Z,100083.44
2018-03-21T15:58:20.875Z,100092.84
2018-03-21T16:00:48.454Z,100101.52
2018-03-21T16:03:16.087Z,100095.90
2018-03-21T16:05:43.780Z,100111.95
2018-03-21T16:08:11.374Z,100114.02
2018-03-21T16:10:39.026Z,100117.08
2018-03-21T16:13:06.628Z,100109.00
2018-03-21T16:15:34.230Z,100097.70
2018-03-21T16:18:01.853Z,100115.20
2018-03-21T16:20:29.442Z,100117.77
2018-03-21T16:22:57.316Z,100118.09
2018-03-21T16:25:24.966Z,100112.97
2018-03-21T16:27:52.550Z,100116.62
2018-03-21T16:30:20.137Z,100123.49
2018-03-21T16:32:47.771Z,100126.00
2018-03-21T16:35:15.351Z,100137.84
2018-03-21T16:37:42.939Z,100126.92
2018-03-21T16:40:10.617Z,100128.53
2018-03-21T16:42:38.218Z,100121.67
2018-03-21T16:45:05.870Z,100137.75
2018-03-21T16:47:33.502Z,100143.55
2018-03-21T16:50:01.101Z,100143.88
2018-03-21T16:52:28.691Z,100152.48
2018-03-21T16:54:56.330Z,100156.28
2018-03-21T16:57:23.905Z,100157.77
2018-03-21T16:59:51.499Z,100156.45
2018-03-21T17:02:19.131Z,100144.20
2018-03-21T17:04:46.713Z,100152.19
2018-03-21T17:07:14.312Z,100164.47
2018-03-21T17:09:41.942Z,100182.05
2018-03-21T17:12:09.531Z,100187.80
2018-03-21T17:14:37.146Z,100189.03
2018-03-21T17:17:04.780Z,100192.97
2018-03-21T17:19:32.352Z,100201.44
2018-03-21T17:21:59.927Z,100209.09
2018-03-21T17:24:27.570Z,100212.98
2018-03-21T17:26:55.172Z,100213.81
2018-03-21T17:29:22.762Z,100216.50
2018-03-21T17:31:50.396Z,100219.89
2018-03-21T17:34:17.998Z,100228.62
2018-03-21T17:36:45.580Z,100238.83
2018-03-21T17:39:13.199Z,100234.73
2018-03-21T17:41:40.787Z,100229.48
2018-03-21T17:44:08.369Z,100235.61
2018-03-21T17:46:35.991Z,100235.41
2018-03-21T17:49:03.558Z,100237.67
2018-03-21T17:51:31.147Z,100242.19
2018-03-21T17:53:58.764Z,100243.87
2018-03-21T17:56:26.366Z,100250.91
2018-03-21T17:58:53.958Z,100244.45
2018-03-21T18:01:21.583Z,100239.54
2018-03-21T18:03:49.278Z,100239.72
2018-03-21T18:06:16.917Z,100250.16
2018-03-21T18:08:44.547Z,100248.00
2018-03-21T18:11:12.166Z,100251.22
2018-03-21T18:13:39.748Z,100263.63
2018-03-21T18:16:07.373Z,100270.83
2018-03-21T18:18:34.969Z,100270.38
2018-03-21T18:21:02.562Z,100274.68
2018-03-21T18:23:30.211Z,100283.91
2018-03-21T18:25:57.826Z,100283.59
2018-03-21T18:28:25.409Z,100275.91
2018-03-21T18:30:53.031Z,100287.52
2018-03-21T18:33:20.625Z,100286.96
2018-03-21T18:35:48.235Z,100288.96
2018-03-21T18:38:16.474Z,100286.16
2018-03-21T18:40:44.081Z,100292.98
2018-03-21T18:43:11.688Z,100297.97
2018-03-21T18:45:39.323Z,100295.81
2018-03-21T18:48:06.905Z,100300.84
2018-03-21T18:50:34.497Z,100310.53
2018-03-21T18:53:02.143Z,100311.94
2018-03-21T18:55:31.542Z,100312.34
2018-03-21T18:57:59.150Z,100317.56
2018-03-21T19:00:26.797Z,100329.13
2018-03-21T19:02:54.391Z,100331.58
2018-03-21T19:05:22.048Z,100327.74
2018-03-21T19:07:49.776Z,100327.25
2018-03-21T19:10:17.435Z,100331.73
2018-03-21T19:12:45.035Z,100329.86
2018-03-21T19:15:12.683Z,100334.30
2018-03-21T19:17:40.284Z,100331.84
2018-03-21T19:20:07.902Z,100334.70
2018-03-21T19:22:35.526Z,100341.04
2018-03-21T19:25:03.138Z,100332.89
2018-03-21T19:27:30.750Z,100333.09
2018-03-21T19:29:58.367Z,100346.23
2018-03-21T19:32:25.949Z,100361.46
2018-03-21T19:34:53.541Z,100364.55
2018-03-21T19:37:21.252Z,100348.98
2018-03-21T19:39:48.900Z,100359.91
2018-03-21T19:42:16.504Z,100359.96
2018-03-21T19:44:44.135Z,100370.16
2018-03-21T19:47:11.722Z,100378.20
2018-03-21T19:49:39.336Z,100379.86
2018-03-21T19:52:07.021Z,100379.91
2018-03-21T19:54:34.612Z,100381.70
2018-03-21T19:57:02.207Z,100383.38
2018-03-21T19:59:29.861Z,100384.29
2018-03-21T20:01:57.468Z,100386.94
2018-03-21T20:04:25.067Z,100392.05
2018-03-21T20:06:52.701Z,100382.13
2018-03-21T20:09:20.305Z,100389.81
2018-03-21T20:11:47.905Z,100392.14
2018-03-21T20:14:15.591Z,100386.82
2018-03-21T20:16:43.211Z,100392.74
2018-03-21T20:19:10.815Z,100392.25
2018-03-21T20:21:38.456Z,100389.44
2018-03-21T20:24:06.067Z,100402.68
2018-03-21T20:26:33.665Z,100411.61
2018-03-21T20:29:01.304Z,100414.95
2018-03-21T20:31:28.904Z,100415.55
2018-03-21T20:33:56.498Z,100414.31
2018-03-21T20:36:24.185Z,100414.52
2018-03-21T20:38:51.789Z,100420.56
2018-03-21T20:41:19.386Z,100422.20
2018-03-21T20:43:47.010Z,100422.04
2018-03-21T20:46:14.608Z,100431.36
2018-03-21T20:48:42.197Z,100443.19
2018-03-21T20:51:09.826Z,100441.53
2018-03-21T20:53:37.418Z,100436.29
2018-03-21T20:56:05.023Z,100437.13
2018-03-21T20:58:32.647Z,100437.28
2018-03-21T21:01:00.242Z,100452.61
2018-03-21T21:03:27.862Z,100446.87
2018-03-21T21:05:55.559Z,100449.24
2018-03-21T21:08:23.166Z,100458.30
2018-03-21T21:10:50.752Z,100455.39
2018-03-21T21:13:18.373Z,100460.66
2018-03-21T21:15:45.967Z,100461.25
2018-03-21T21:18:13.573Z,100456.60
2018-03-21T21:20:41.198Z,100447.33
2018-03-21T21:23:08.803Z,100456.66
2018-03-21T21:25:36.506Z,100460.73
2018-03-21T21:28:04.138Z,100467.02
2018-03-21T21:30:31.730Z,100462.55
2018-03-21T21:32:59.367Z,100461.05
2018-03-21T21:35:27.004Z,100452.03
2018-03-21T21:37:54.585Z,100452.94
2018-03-21T21:40:22.180Z,100448.14
2018-03-21T21:42:49.818Z,100448.40
2018-03-21T21:45:17.438Z,100451.00
2018-03-21T21:47:45.072Z,100453.78
2018-03-21T21:50:12.701Z,100444.23
2018-03-21T21:52:40.306Z,100445.69
2018-03-21T21:55:07.903Z,100437.88
2018-03-21T21:57:35.607Z,100442.85
2018-03-21T22:00:03.208Z,100439.77
2018-03-21T22:02:30.806Z,100434.16
2018-03-21T22:04:58.438Z,100434.39
2018-03-21T22:07:26.022Z,100435.77
2018-03-21T22:09:53.609Z,100440.80
2018-03-21T22:12:24.123Z,100442.38
2018-03-21T22:14:51.707Z,100436.75
2018-03-21T22:17:19.298Z,100446.90
2018-03-21T22:19:46.938Z,100447.97
2018-03-21T22:22:14.530Z,100445.73
2018-03-21T22:24:42.130Z,100454.01
2018-03-21T22:27:09.754Z,100460.91
2018-03-21T22:29:37.341Z,100461.22
2018-03-21T22:32:04.930Z,100461.11
2018-03-21T22:34:32.567Z,100470.78
2018-03-21T22:37:00.179Z,100468.33
2018-03-21T22:39:27.784Z,100470.95
2018-03-21T22:41:55.425Z,100466.94
2018-03-21T22:44:23.022Z,100470.55
2018-03-21T22:46:50.623Z,100474.70
2018-03-21T22:49:18.256Z,100465.84
2018-03-21T22:51:45.850Z,100472.27
2018-03-21T22:54:13.450Z,100468.63
2018-03-21T22:56:41.079Z,100474.75
2018-03-21T22:59:08.684Z,100475.00
2018-03-21T23:01:36.282Z,100484.42
2018-03-21T23:04:03.922Z,100481.25
2018-03-21T23:06:31.536Z,100485.88
2018-03-21T23:08:59.128Z,100488.84
2018-03-21T23:11:26.768Z,100489.51
2018-03-21T23:13:54.364Z,100498.52
2018-03-21T23:16:21.959Z,100496.61
2018-03-21T23:18:49.571Z,100492.03
2018-03-21T23:21:17.162Z,100495.77
2018-03-21T23:23:44.747Z,100489.16
2018-03-21T23:26:12.382Z,100491.55
2018-03-21T23:28:39.976Z,100500.76
2018-03-21T23:31:07.563Z,100504.11
2018-03-21T23:33:35.223Z,100501.98
2018-03-21T23:36:02.847Z,100500.66
2018-03-21T23:38:30.447Z,100497.00
2018-03-21T23:40:58.078Z,100503.46
2018-03-21T23:43:25.687Z,100512.75
2018-03-21T23:45:53.280Z,100510.72
2018-03-21T23:48:20.921Z,100505.58
2018-03-21T23:50:48.526Z,100502.86
2018-03-21T23:53:16.116Z,100499.80
2018-03-21T23:55:43.747Z,100491.11
2018-03-21T23:58:11.346Z,100490.81
